Time;durP1;ratioP1;P1;durP2;ratioP2;P2;SDS_P1;SDS_P2;PMS_P1;PMS_P2;Temp;Humidity;BMP_temperature;BMP_pressure;BME280_temperature;BME280_humidity;BME280_pressure;Samples;Min_cycle;Max_cycle;Signal;HPM_P1;HPM_P2
2023/10/25 00:00:38;;;;;;;2.25;0.80;;;;;;;7.01;89.01;99340.13;4937227;28;20067;-85
2023/10/25 00:03:05;;;;;;;2.10;0.90;;;;;;;6.90;88.75;99341.19;4911997;28;20055;-84
2023/10/25 00:05:35;;;;;;;1.40;0.70;;;;;;;6.96;87.68;99343.66;4918487;28;20052;-86
2023/10/25 00:08:01;;;;;;;1.02;0.63;;;;;;;6.93;87.98;99345.50;4922875;28;20439;-84
2023/10/25 00:10:28;;;;;;;2.50;0.57;;;;;;;6.94;87.88;99342.84;4928294;28;20062;-85
2023/10/25 00:12:59;;;;;;;0.50;0.50;;;;;;;6.97;87.81;99336.72;4908138;28;20139;-84
2023/10/25 00:15:26;;;;;;;1.10;0.80;;;;;;;6.96;87.39;99346.28;4910837;28;20075;-84
2023/10/25 00:17:53;;;;;;;0.70;0.47;;;;;;;6.99;87.10;99341.91;4916369;28;20048;-84
2023/10/25 00:20:20;;;;;;;0.75;0.60;;;;;;;6.99;86.47;99336.69;4912377;28;20078;-86
2023/10/25 00:22:47;;;;;;;2.13;0.60;;;;;;;6.89;87.81;99342.06;4913911;29;20066;-84
2023/10/25 00:25:14;;;;;;;1.15;0.60;;;;;;;6.89;88.03;99343.81;4910801;28;20051;-86
2023/10/25 00:27:41;;;;;;;1.38;0.60;;;;;;;6.82;88.58;99340.44;4916049;28;20054;-85
2023/10/25 00:30:08;;;;;;;0.55;0.50;;;;;;;6.80;89.18;99352.66;4911411;28;20048;-86
2023/10/25 00:32:35;;;;;;;3.67;0.80;;;;;;;6.78;89.32;99349.22;4914089;28;20062;-84
2023/10/25 00:35:02;;;;;;;1.67;0.57;;;;;;;6.89;87.98;99347.28;4919675;28;20047;-84
2023/10/25 00:37:29;;;;;;;1.50;0.80;;;;;;;6.87;88.83;99354.28;4905872;28;20048;-84
2023/10/25 00:39:56;;;;;;;0.70;0.40;;;;;;;6.89;88.26;99359.47;4913971;28;20055;-83
2023/10/25 00:42:24;;;;;;;1.80;0.90;;;;;;;6.88;88.77;99360.34;4905569;28;20052;-84
2023/10/25 00:44:51;;;;;;;1.02;0.80;;;;;;;6.85;88.66;99350.84;4908362;28;20111;-85
2023/10/25 00:47:17;;;;;;;2.13;0.70;;;;;;;6.89;87.95;99352.50;4920716;28;20052;-85
2023/10/25 00:49:44;;;;;;;1.10;0.60;;;;;;;6.89;87.69;99355.09;4919136;28;20042;-84
2023/10/25 00:52:11;;;;;;;0.60;0.50;;;;;;;6.91;86.80;99353.34;4907925;28;20056;-85
2023/10/25 00:54:38;;;;;;;1.05;0.52;;;;;;;6.92;86.05;99349.84;4919861;28;20122;-84
2023/10/25 00:57:05;;;;;;;0.88;0.60;;;;;;;6.90;86.48;99349.00;4929709;29;20071;-85
2023/10/25 00:59:32;;;;;;;4.50;0.60;;;;;;;6.90;86.53;99355.97;4935031;29;20127;-84
2023/10/25 01:01:59;;;;;;;1.98;0.70;;;;;;;6.85;86.89;99353.47;4936701;29;20055;-85
2023/10/25 01:04:28;;;;;;;1.17;0.90;;;;;;;6.81;86.67;99357.00;4937633;29;20055;-84
2023/10/25 01:06:55;;;;;;;0.55;0.55;;;;;;;6.84;85.45;99354.34;4937668;29;20048;-84
2023/10/25 01:09:22;;;;;;;1.40;0.60;;;;;;;6.78;85.72;99354.44;4927684;29;20063;-84
2023/10/25 01:11:49;;;;;;;1.63;0.60;;;;;;;6.76;86.24;99350.97;4912659;28;20100;-84
2023/10/25 01:14:16;;;;;;;2.35;1.00;;;;;;;6.61;87.68;99347.75;4911825;28;20054;-84
2023/10/25 01:16:42;;;;;;;0.70;0.70;;;;;;;6.69;88.18;99347.63;4929821;28;20051;-84
2023/10/25 01:19:09;;;;;;;3.05;0.80;;;;;;;6.65;88.41;99347.69;4908021;28;20073;-84
2023/10/25 01:21:36;;;;;;;0.70;0.70;;;;;;;6.73;87.49;99345.81;4915077;28;20070;-87
2023/10/25 01:24:03;;;;;;;0.65;0.65;;;;;;;6.77;86.89;99340.53;4907060;28;20068;-84
2023/10/25 01:26:30;;;;;;;0.85;0.70;;;;;;;6.72;87.61;99341.50;4911196;28;20047;-84
2023/10/25 01:28:57;;;;;;;1.13;0.70;;;;;;;6.73;86.83;99340.63;4913333;28;20062;-90
2023/10/25 01:31:24;;;;;;;2.92;1.17;;;;;;;6.65;87.53;99342.47;4916900;28;20066;-85
2023/10/25 01:33:51;;;;;;;1.00;0.90;;;;;;;6.62;88.17;99338.19;4911591;28;20514;-84
2023/10/25 01:36:18;;;;;;;1.75;0.65;;;;;;;6.66;86.83;99336.38;4916430;28;20059;-84
2023/10/25 01:38:45;;;;;;;2.30;0.93;;;;;;;6.59;88.03;99339.09;4917562;28;20131;-84
2023/10/25 01:41:16;;;;;;;2.25;0.88;;;;;;;6.52;89.03;99327.06;4909121;28;20047;-86
2023/10/25 01:43:51;;;;;;;2.03;0.77;;;;;;;6.49;89.45;99329.72;4912915;29;20048;-85
2023/10/25 01:46:18;;;;;;;2.35;1.00;;;;;;;6.48;89.68;99330.59;4913590;28;20066;-85
2023/10/25 01:48:45;;;;;;;4.63;0.95;;;;;;;6.37;89.60;99345.53;4906694;28;20052;-84
2023/10/25 01:51:12;;;;;;;3.72;1.10;;;;;;;6.41;90.27;99339.38;4916860;28;20058;-84
2023/10/25 01:53:39;;;;;;;1.58;1.08;;;;;;;6.47;90.47;99344.50;4915244;28;20142;-84
2023/10/25 01:56:06;;;;;;;2.08;1.10;;;;;;;6.45;90.97;99338.47;4910731;28;20077;-84
2023/10/25 01:58:32;;;;;;;0.90;0.80;;;;;;;6.46;90.71;99334.09;4914411;28;20066;-87
2023/10/25 02:01:05;;;;;;;1.33;1.15;;;;;;;6.41;90.77;99328.97;4910789;28;20051;-85
2023/10/25 02:03:32;;;;;;;1.98;0.90;;;;;;;6.39;90.88;99328.16;4912380;28;20048;-84
2023/10/25 02:05:59;;;;;;;1.75;0.90;;;;;;;6.35;91.05;99319.50;4930054;28;20047;-84
2023/10/25 02:08:25;;;;;;;1.50;1.17;;;;;;;6.32;91.31;99324.75;4916605;28;20062;-84
2023/10/25 02:10:52;;;;;;;1.23;1.00;;;;;;;6.29;91.64;99323.97;4914679;28;20048;-85
2023/10/25 02:13:19;;;;;;;4.22;1.20;;;;;;;6.30;91.49;99320.44;4907586;28;20519;-84
2023/10/25 02:15:46;;;;;;;3.22;1.00;;;;;;;6.32;91.30;99314.34;4906592;28;20069;-85
2023/10/25 02:18:13;;;;;;;1.83;1.00;;;;;;;6.39;91.27;99315.13;4900091;28;20059;-86
2023/10/25 02:20:39;;;;;;;1.23;1.13;;;;;;;6.39;91.56;99312.50;4918910;28;20131;-84
2023/10/25 02:23:06;;;;;;;1.77;1.00;;;;;;;6.46;91.78;99310.63;4899479;28;20066;-84
2023/10/25 02:25:33;;;;;;;3.53;1.25;;;;;;;6.46;91.45;99310.63;4916204;28;20048;-85
2023/10/25 02:28:00;;;;;;;2.70;1.00;;;;;;;6.44;91.82;99311.56;4903126;28;20044;-84
2023/10/25 02:30:27;;;;;;;1.67;1.38;;;;;;;6.39;91.87;99310.75;4924262;28;20130;-85
2023/10/25 02:32:54;;;;;;;2.45;1.10;;;;;;;6.34;91.52;99315.16;4906719;28;20048;-84
2023/10/25 02:35:21;;;;;;;4.57;1.50;;;;;;;6.31;91.88;99316.97;4913243;28;20135;-83
2023/10/25 02:37:48;;;;;;;1.17;1.08;;;;;;;6.26;91.47;99304.88;4912068;28;20056;-86
2023/10/25 02:40:14;;;;;;;2.13;1.48;;;;;;;6.23;91.59;99297.09;4918694;28;20388;-84
2023/10/25 02:42:44;;;;;;;2.03;1.25;;;;;;;6.19;91.03;99290.22;4923044;28;20048;-85
2023/10/25 02:45:11;;;;;;;2.53;1.17;;;;;;;6.17;91.05;99278.97;4913938;28;20100;-84
2023/10/25 02:47:38;;;;;;;1.50;1.02;;;;;;;6.16;90.40;99287.66;4906764;28;20071;-84
2023/10/25 02:50:05;;;;;;;3.90;1.30;;;;;;;6.10;91.03;99279.94;4917905;28;20048;-85
2023/10/25 02:52:32;;;;;;;2.20;1.10;;;;;;;6.12;90.73;99277.31;4914023;28;20134;-85
2023/10/25 02:54:59;;;;;;;3.42;1.25;;;;;;;6.14;90.13;99276.41;4909803;28;20055;-84
2023/10/25 02:57:26;;;;;;;1.88;1.20;;;;;;;6.05;90.45;99276.53;4912684;29;20060;-86
2023/10/25 02:59:53;;;;;;;1.92;1.00;;;;;;;6.10;89.81;99274.75;4907955;28;20044;-86
2023/10/25 03:02:20;;;;;;;2.50;1.42;;;;;;;6.00;90.26;99271.41;4918308;28;20163;-86
2023/10/25 03:04:47;;;;;;;2.97;1.25;;;;;;;6.01;90.07;99261.84;4925718;28;20054;-84
2023/10/25 03:07:14;;;;;;;2.33;1.25;;;;;;;5.92;90.77;99263.69;4904649;28;20051;-86
2023/10/25 03:09:41;;;;;;;1.05;0.90;;;;;;;5.97;90.25;99254.91;4904055;28;20054;-86
2023/10/25 03:12:08;;;;;;;1.20;0.93;;;;;;;5.99;89.60;99254.06;4913694;28;20047;-88
2023/10/25 03:14:35;;;;;;;2.33;1.10;;;;;;;5.97;89.42;99257.53;4911943;28;20054;-85
2023/10/25 03:17:02;;;;;;;3.17;1.10;;;;;;;6.01;88.78;99251.41;4917305;28;20051;-85
2023/10/25 03:19:29;;;;;;;1.05;0.82;;;;;;;6.04;87.65;99247.03;4903963;28;20082;-86
2023/10/25 03:21:58;;;;;;;4.45;1.42;;;;;;;5.97;88.55;99254.91;4927161;28;20051;-86
2023/10/25 03:24:25;;;;;;;1.52;1.17;;;;;;;6.03;87.60;99250.53;4912139;28;20384;-84
2023/10/25 03:26:52;;;;;;;1.52;1.02;;;;;;;5.98;87.77;99252.34;4917991;28;20058;-87
2023/10/25 03:29:19;;;;;;;2.05;1.23;;;;;;;5.95;87.49;99246.28;4902938;28;20058;-84
2023/10/25 03:31:45;;;;;;;2.15;1.10;;;;;;;5.85;88.38;99246.44;4923265;28;20530;-83
2023/10/25 03:34:14;;;;;;;1.90;1.45;;;;;;;5.77;88.61;99242.22;4912106;28;20094;-89
2023/10/25 03:36:41;;;;;;;1.27;1.00;;;;;;;5.74;88.87;99243.97;4914531;28;20111;-84
2023/10/25 03:39:08;;;;;;;2.92;1.23;;;;;;;5.81;87.76;99241.28;4901859;28;20055;-83
2023/10/25 03:41:35;;;;;;;1.45;1.00;;;;;;;5.82;87.07;99236.06;4909299;28;20040;-84
2023/10/25 03:44:02;;;;;;;6.85;3.15;;;;;;;5.65;88.72;99228.50;4919276;28;20052;-88
2023/10/25 03:46:29;;;;;;;3.30;2.35;;;;;;;5.67;88.80;99226.72;4904008;28;20068;-89
2023/10/25 03:48:56;;;;;;;2.95;2.08;;;;;;;5.77;87.91;99227.44;4896704;28;20056;-88
2023/10/25 03:51:23;;;;;;;3.40;1.92;;;;;;;5.74;87.56;99230.09;4896275;28;20055;-86
2023/10/25 03:53:50;;;;;;;1.65;1.20;;;;;;;5.72;87.93;99226.66;4915815;28;20054;-84
2023/10/25 03:56:17;;;;;;;4.43;1.50;;;;;;;5.68;87.49;99222.41;4909641;28;20121;-84
2023/10/25 03:58:56;;;;;;;2.72;1.10;;;;;;;5.73;86.79;99225.78;4918413;28;20051;-84
2023/10/25 04:01:23;;;;;;;3.78;1.33;;;;;;;5.70;86.70;99215.41;4893406;28;20052;-85
2023/10/25 04:03:50;;;;;;;2.78;1.52;;;;;;;5.68;87.01;99206.78;4912386;28;20120;-84
2023/10/25 04:06:16;;;;;;;3.83;1.48;;;;;;;5.60;87.98;99213.81;4921757;28;20224;-83
2023/10/25 04:08:43;;;;;;;3.17;1.52;;;;;;;5.63;88.19;99209.41;4910918;28;20055;-85
2023/10/25 04:11:10;;;;;;;5.00;1.60;;;;;;;5.66;87.66;99198.13;4909343;28;20051;-86
2023/10/25 04:13:37;;;;;;;2.45;1.73;;;;;;;5.58;88.40;99206.88;4905923;29;20063;-84
2023/10/25 04:16:06;;;;;;;8.43;1.90;;;;;;;5.48;88.99;99201.84;4897755;28;20144;-93
2023/10/25 04:18:33;;;;;;;4.45;1.33;;;;;;;5.43;89.52;99207.13;4913357;28;20368;-85
2023/10/25 04:21:00;;;;;;;4.75;1.70;;;;;;;5.42;90.27;99210.59;4900296;28;20102;-85
2023/10/25 04:23:31;;;;;;;4.30;1.80;;;;;;;5.47;90.59;99207.94;4915227;29;20054;-83
2023/10/25 04:26:05;;;;;;;8.05;1.60;;;;;;;5.47;91.18;99207.94;4910217;28;20055;-84
2023/10/25 04:28:32;;;;;;;2.97;1.85;;;;;;;5.47;91.07;99200.97;4920686;28;20051;-87
2023/10/25 04:31:02;;;;;;;2.22;1.55;;;;;;;5.53;91.04;99198.31;4905732;28;20048;-85
2023/10/25 04:33:30;;;;;;;1.88;1.58;;;;;;;5.62;91.01;99199.03;4915056;28;20051;-83
2023/10/25 04:35:56;;;;;;;2.00;1.30;;;;;;;5.70;90.03;99199.78;4906182;28;20059;-84
2023/10/25 04:38:23;;;;;;;3.03;2.08;;;;;;;5.75;90.27;99192.78;4914719;29;20123;-84
2023/10/25 04:40:51;;;;;;;4.95;2.35;;;;;;;5.80;89.98;99179.69;4917297;28;20142;-84
2023/10/25 04:43:18;;;;;;;4.10;2.15;;;;;;;5.81;90.18;99179.66;4910840;28;20103;-85
2023/10/25 04:45:46;;;;;;;5.95;2.17;;;;;;;5.75;90.85;99183.22;4922770;28;20056;-84
2023/10/25 04:48:13;;;;;;;6.82;2.75;;;;;;;5.81;90.62;99179.66;4910080;28;20355;-85
2023/10/25 04:50:39;;;;;;;4.55;2.00;;;;;;;5.88;90.07;99178.69;4913755;28;20047;-84
2023/10/25 04:53:06;;;;;;;2.65;1.90;;;;;;;5.93;89.69;99166.44;4912574;28;20044;-85
2023/10/25 04:55:34;;;;;;;2.90;2.08;;;;;;;5.98;90.43;99160.31;4909990;28;20048;-84
2023/10/25 04:58:01;;;;;;;4.07;2.17;;;;;;;5.98;90.57;99173.34;4902796;28;20514;-84
2023/10/25 05:00:28;;;;;;;4.25;2.08;;;;;;;5.97;90.12;99162.09;4909066;28;20106;-85
2023/10/25 05:02:56;;;;;;;4.97;2.28;;;;;;;6.08;90.98;99159.28;4922181;28;20047;-84
2023/10/25 05:05:23;;;;;;;6.10;2.33;;;;;;;6.11;91.14;99159.22;4905692;28;20052;-84
2023/10/25 05:07:51;;;;;;;4.68;2.20;;;;;;;6.09;91.25;99158.41;4916607;28;20056;-84
2023/10/25 05:10:18;;;;;;;9.35;2.88;;;;;;;6.12;91.68;99153.13;4911390;28;20082;-83
2023/10/25 05:12:47;;;;;;;4.68;3.15;;;;;;;6.13;91.69;99154.88;4918295;28;20047;-84
2023/10/25 05:15:16;;;;;;;3.70;2.17;;;;;;;6.10;91.61;99152.31;4902487;28;20055;-84
2023/10/25 05:17:45;;;;;;;3.67;2.22;;;;;;;6.05;91.45;99148.91;4928566;28;20051;-84
2023/10/25 05:20:13;;;;;;;4.53;2.35;;;;;;;6.09;91.59;99145.38;4909943;28;20063;-84
2023/10/25 05:22:49;;;;;;;3.78;2.13;;;;;;;6.02;91.67;99138.56;4908881;28;20081;-83
2023/10/25 05:25:17;;;;;;;3.88;1.80;;;;;;;6.08;90.83;99143.66;4898870;28;20056;-87
2023/10/25 05:27:44;;;;;;;7.88;3.65;;;;;;;6.05;90.72;99139.38;4915433;28;20059;-85
2023/10/25 05:30:14;;;;;;;4.57;2.20;;;;;;;6.11;90.75;99143.59;4902006;28;20044;-85
2023/10/25 05:32:46;;;;;;;2.67;2.20;;;;;;;6.11;90.45;99134.94;4923838;28;20051;-86
2023/10/25 05:35:14;;;;;;;2.92;2.00;;;;;;;6.09;90.05;99127.16;4904391;29;20357;-85
2023/10/25 05:37:42;;;;;;;2.97;2.22;;;;;;;6.15;90.30;99131.38;4934005;28;20062;-86
2023/10/25 05:40:09;;;;;;;3.67;1.80;;;;;;;6.13;90.59;99117.56;4931973;28;20066;-85
2023/10/25 05:42:47;;;;;;;4.28;1.90;;;;;;;6.19;90.36;99110.47;4906040;28;20050;-85
2023/10/25 05:45:17;;;;;;;2.30;1.73;;;;;;;6.21;89.60;99108.72;4909313;28;20165;-86
2023/10/25 05:47:44;;;;;;;3.67;2.45;;;;;;;6.26;90.72;99106.84;4926990;28;20123;-85
2023/10/25 05:50:11;;;;;;;1.73;1.38;;;;;;;6.22;89.42;99102.59;4902659;28;20048;-83
2023/10/25 05:52:44;;;;;;;3.45;2.35;;;;;;;6.32;89.93;99097.22;4916476;28;20055;-85
2023/10/25 05:55:15;;;;;;;2.05;1.50;;;;;;;6.33;89.49;99091.97;4910973;28;20062;-86
2023/10/25 05:57:43;;;;;;;2.70;1.80;;;;;;;6.33;89.17;99097.19;4920435;28;20048;-84
2023/10/25 06:00:10;;;;;;;1.80;1.70;;;;;;;6.39;87.59;99091.00;4917518;28;20056;-84
2023/10/25 06:02:37;;;;;;;2.35;1.80;;;;;;;6.44;89.61;99079.59;4905479;28;20131;-83
2023/10/25 06:05:09;;;;;;;3.85;2.00;;;;;;;6.52;89.12;99076.84;4907157;28;20052;-84
2023/10/25 06:07:38;;;;;;;3.33;1.98;;;;;;;6.52;88.23;99076.84;4894004;28;20087;-84
2023/10/25 06:10:06;;;;;;;2.55;1.88;;;;;;;6.53;88.18;99072.47;4908195;29;20044;-85
2023/10/25 06:12:34;;;;;;;1.95;1.30;;;;;;;6.51;87.28;99067.28;4914900;28;20059;-84
2023/10/25 06:15:04;;;;;;;4.80;2.63;;;;;;;6.63;88.80;99067.94;4907877;28;20052;-84
2023/10/25 06:17:31;;;;;;;2.90;1.40;;;;;;;6.57;87.71;99061.94;4927618;28;20055;-84
2023/10/25 06:19:58;;;;;;;4.07;2.03;;;;;;;6.65;88.05;99071.34;4922082;28;20044;-85
2023/10/25 06:22:26;;;;;;;2.00;1.58;;;;;;;6.66;87.17;99068.72;4928887;28;20076;-84
2023/10/25 06:24:53;;;;;;;3.30;1.90;;;;;;;6.70;87.71;99069.53;4901497;28;20059;-84
2023/10/25 06:27:20;;;;;;;3.88;2.35;;;;;;;6.74;88.13;99068.56;4897754;28;20052;-88
2023/10/25 06:29:47;;;;;;;4.18;2.38;;;;;;;6.77;88.62;99069.34;4911642;28;20059;-85
2023/10/25 06:32:14;;;;;;;3.67;2.00;;;;;;;6.83;89.15;99070.97;4896999;29;20380;-84
2023/10/25 06:34:41;;;;;;;4.05;2.50;;;;;;;6.87;88.96;99067.41;4910401;28;20135;-87
2023/10/25 06:37:09;;;;;;;6.43;2.97;;;;;;;7.07;90.09;99059.13;4881444;28;20159;-84
2023/10/25 06:39:36;;;;;;;4.72;2.63;;;;;;;7.07;90.13;99048.69;4909962;28;20047;-81
2023/10/25 06:42:03;;;;;;;5.80;3.00;;;;;;;7.23;91.22;99048.34;4903470;28;20048;-81
2023/10/25 06:44:31;;;;;;;6.75;3.80;;;;;;;7.32;91.57;99042.91;4939227;28;20062;-82
2023/10/25 06:46:58;;;;;;;6.05;3.30;;;;;;;7.40;92.33;99035.75;4920528;28;20040;-79
2023/10/25 06:49:25;;;;;;;5.75;3.08;;;;;;;7.44;92.49;99041.75;4926225;28;20051;-83
2023/10/25 06:51:52;;;;;;;5.30;2.88;;;;;;;7.57;92.57;99037.09;4924056;28;20043;-82
2023/10/25 06:54:20;;;;;;;6.57;3.60;;;;;;;7.40;92.79;99034.88;4903407;28;20054;-81
2023/10/25 06:56:47;;;;;;;4.88;2.42;;;;;;;7.47;93.09;99039.06;4922419;28;20044;-82
2023/10/25 06:59:15;;;;;;;8.57;3.20;;;;;;;7.39;93.08;99033.19;4913114;28;20062;-81
2023/10/25 07:01:44;;;;;;;7.35;2.95;;;;;;;7.54;93.23;99026.72;4888583;29;20078;-82
2023/10/25 07:04:16;;;;;;;8.35;3.30;;;;;;;7.52;93.47;99029.38;4907541;28;20060;-82
2023/10/25 07:06:45;;;;;;;7.20;2.53;;;;;;;7.54;93.24;99029.34;4921040;28;20058;-81
2023/10/25 07:09:15;;;;;;;13.57;3.50;;;;;;;7.49;93.16;99014.63;4902353;28;20048;-82
2023/10/25 07:11:42;;;;;;;5.57;3.40;;;;;;;7.53;93.55;99025.88;4932533;28;20056;-83
2023/10/25 07:14:10;;;;;;;5.95;3.38;;;;;;;7.50;93.34;99015.47;4935611;28;20054;-82
2023/10/25 07:16:37;;;;;;;6.97;3.35;;;;;;;7.55;93.47;99015.41;4922464;28;20074;-81
2023/10/25 07:19:05;;;;;;;14.40;3.47;;;;;;;7.54;93.42;99016.28;4911407;28;20051;-81
2023/10/25 07:21:32;;;;;;;9.23;3.63;;;;;;;7.65;93.71;99002.03;4906061;28;20136;-82
2023/10/25 07:23:59;;;;;;;5.13;3.05;;;;;;;7.58;93.72;99002.25;4917548;28;20044;-83
2023/10/25 07:26:26;;;;;;;8.20;3.60;;;;;;;7.64;93.58;98997.72;4902667;28;20056;-81
2023/10/25 07:28:53;;;;;;;7.25;3.25;;;;;;;7.80;93.50;98997.31;4901297;28;20047;-83
2023/10/25 07:31:19;;;;;;;5.05;2.95;;;;;;;7.83;93.60;98999.84;4890654;28;20056;-82
2023/10/25 07:33:46;;;;;;;5.88;3.40;;;;;;;7.76;93.62;98986.13;4921282;28;20052;-82
2023/10/25 07:36:13;;;;;;;7.15;3.40;;;;;;;7.84;93.62;98978.06;4896816;28;20087;-81
2023/10/25 07:38:40;;;;;;;7.05;3.00;;;;;;;7.84;93.26;98973.69;4907958;28;20057;-83
2023/10/25 07:41:07;;;;;;;6.97;3.50;;;;;;;7.84;93.13;98973.69;4908803;28;20126;-80
2023/10/25 07:43:34;;;;;;;8.18;3.67;;;;;;;7.74;93.08;98976.59;4904780;28;20054;-82
2023/10/25 07:46:00;;;;;;;4.78;2.85;;;;;;;7.79;92.94;98967.75;4904421;28;20052;-83
2023/10/25 07:48:28;;;;;;;7.00;3.90;;;;;;;7.74;92.97;98979.22;4907371;28;20055;-81
2023/10/25 07:51:02;;;;;;;7.75;3.50;;;;;;;7.84;92.77;98970.22;4930960;28;20150;-82
2023/10/25 07:53:29;;;;;;;8.20;4.00;;;;;;;7.87;92.95;98964.91;4926355;28;20062;-83
2023/10/25 07:55:56;;;;;;;8.65;3.75;;;;;;;7.87;92.92;98970.13;4912937;28;20086;-82
2023/10/25 07:58:27;;;;;;;7.82;3.80;;;;;;;7.88;93.07;98961.41;4917622;28;20078;-82
2023/10/25 08:00:55;;;;;;;8.32;3.67;;;;;;;7.88;92.60;98968.38;4898858;28;20047;-82
2023/10/25 08:03:22;;;;;;;6.07;3.08;;;;;;;7.94;92.69;98961.22;4900374;28;20056;-81
2023/10/25 08:05:49;;;;;;;7.38;3.65;;;;;;;7.96;92.40;98967.25;4915898;28;20116;-82
2023/10/25 08:08:17;;;;;;;7.78;3.47;;;;;;;7.94;92.48;98956.00;4908085;28;20114;-83
2023/10/25 08:10:44;;;;;;;9.52;3.85;;;;;;;8.18;92.67;98943.13;4905398;28;20111;-83
2023/10/25 08:13:11;;;;;;;7.82;3.63;;;;;;;8.13;92.60;98934.59;4901980;28;20058;-83
2023/10/25 08:15:38;;;;;;;5.97;3.00;;;;;;;8.17;92.36;98944.06;4901330;28;20048;-81
2023/10/25 08:18:05;;;;;;;5.78;3.20;;;;;;;8.16;92.43;98943.19;4902186;28;20044;-82
2023/10/25 08:20:39;;;;;;;5.57;3.45;;;;;;;8.21;92.29;98931.75;4908669;28;20575;-81
2023/10/25 08:23:06;;;;;;;5.93;3.58;;;;;;;8.24;91.82;98922.06;4903849;28;20118;-83
2023/10/25 08:25:35;;;;;;;5.70;3.40;;;;;;;8.35;91.50;98917.34;4914267;28;20044;-82
2023/10/25 08:28:02;;;;;;;5.15;2.75;;;;;;;8.53;91.84;98921.22;4915356;28;20044;-82
2023/10/25 08:30:29;;;;;;;3.75;2.42;;;;;;;8.49;91.76;98919.59;4912975;28;20054;-83
2023/10/25 08:32:56;;;;;;;5.57;3.00;;;;;;;8.61;91.82;98913.13;4892915;28;20055;-83
2023/10/25 08:35:23;;;;;;;4.05;3.05;;;;;;;8.63;91.90;98920.91;4901402;28;20064;-83
2023/10/25 08:37:50;;;;;;;5.60;3.30;;;;;;;8.70;91.68;98911.97;4911690;28;20044;-83
2023/10/25 08:40:17;;;;;;;4.35;2.60;;;;;;;8.55;90.92;98908.09;4905671;28;20058;-83
2023/10/25 08:42:44;;;;;;;3.92;2.72;;;;;;;8.59;91.07;98909.72;4915630;29;20056;-83
2023/10/25 08:45:14;;;;;;;5.15;3.13;;;;;;;8.42;91.22;98901.50;4900144;28;20047;-82
2023/10/25 08:47:43;;;;;;;5.70;3.35;;;;;;;8.43;91.07;98895.34;4901042;29;20048;-83
2023/10/25 08:50:10;;;;;;;5.03;2.72;;;;;;;8.43;91.10;98903.19;4896875;28;20486;-82
2023/10/25 08:52:37;;;;;;;3.83;3.10;;;;;;;8.38;91.07;98899.88;4916123;28;20131;-83
2023/10/25 08:55:09;;;;;;;4.75;3.15;;;;;;;8.34;91.42;98891.25;4910223;28;20051;-82
2023/10/25 08:57:40;;;;;;;5.03;3.03;;;;;;;8.25;91.52;98886.31;4896170;29;20044;-83
2023/10/25 09:00:09;;;;;;;5.78;3.38;;;;;;;8.31;91.19;98894.84;4914534;28;20448;-82
2023/10/25 09:02:37;;;;;;;5.43;3.13;;;;;;;8.24;91.32;98893.31;4909271;28;20051;-83
2023/10/25 09:05:08;;;;;;;5.70;3.22;;;;;;;8.28;91.34;98883.63;4929969;28;20073;-82
2023/10/25 09:07:36;;;;;;;5.50;3.50;;;;;;;8.24;91.21;98888.09;4911171;28;20119;-83
2023/10/25 09:10:11;;;;;;;5.05;3.10;;;;;;;8.26;91.08;98880.22;4915512;28;20127;-83
2023/10/25 09:12:38;;;;;;;7.43;3.22;;;;;;;8.29;91.36;98870.50;4917095;28;20119;-83
2023/10/25 09:15:06;;;;;;;5.57;3.30;;;;;;;8.34;91.05;98871.22;4910742;28;20058;-82
2023/10/25 09:17:34;;;;;;;6.95;3.60;;;;;;;8.41;91.33;98876.25;4905432;28;20052;-83
2023/10/25 09:20:01;;;;;;;5.40;3.17;;;;;;;8.55;91.17;98870.63;4915412;28;20081;-83
2023/10/25 09:22:29;;;;;;;6.47;3.22;;;;;;;8.41;91.35;98868.41;4912134;28;20055;-82
2023/10/25 09:24:59;;;;;;;6.85;3.47;;;;;;;8.59;91.38;98867.00;4906188;28;20048;-83
2023/10/25 09:27:27;;;;;;;15.48;3.92;;;;;;;8.50;91.08;98862.91;4905864;28;20062;-80
2023/10/25 09:30:11;;;;;;;5.93;3.88;;;;;;;8.52;91.25;98866.34;4920214;28;20052;-83
2023/10/25 09:32:52;;;;;;;8.18;3.78;;;;;;;8.65;91.28;98864.22;4920218;28;20051;-84
2023/10/25 09:35:20;;;;;;;6.22;3.50;;;;;;;8.64;91.29;98852.88;4914204;28;20052;-82
2023/10/25 09:37:47;;;;;;;7.10;4.18;;;;;;;8.68;90.92;98851.03;4906918;29;20059;-82
2023/10/25 09:40:14;;;;;;;6.22;4.05;;;;;;;8.63;91.31;98847.69;4912306;28;20135;-82
2023/10/25 09:42:48;;;;;;;6.80;3.80;;;;;;;8.63;91.50;98842.47;4918704;28;20048;-82
2023/10/25 09:45:20;;;;;;;5.43;3.67;;;;;;;8.58;91.30;98845.22;4899283;28;20051;-83
2023/10/25 09:47:52;;;;;;;6.80;4.07;;;;;;;8.60;91.50;98838.19;4916143;28;20044;-82
2023/10/25 09:50:31;;;;;;;6.10;3.97;;;;;;;8.63;91.58;98838.09;4909646;28;20448;-82
2023/10/25 09:53:19;;;;;;;4.75;3.30;;;;;;;8.58;91.68;98832.16;4910078;28;20044;-80
2023/10/25 09:55:54;;;;;;;6.78;4.32;;;;;;;8.66;91.75;98824.06;4918354;28;20046;-82
2023/10/25 09:58:22;;;;;;;7.05;3.55;;;;;;;8.68;91.55;98820.50;4903238;28;20062;-83
2023/10/25 10:00:49;;;;;;;7.32;3.70;;;;;;;8.78;91.72;98814.97;4906665;28;20067;-83
2023/10/25 10:03:45;;;;;;;5.68;3.75;;;;;;;8.81;91.69;98812.25;4913860;28;20152;-82
2023/10/25 10:06:33;;;;;;;3.80;3.03;;;;;;;8.93;91.73;98798.72;4919569;28;20047;-82
2023/10/25 10:09:16;;;;;;;4.90;3.50;;;;;;;8.92;91.81;98790.94;4926349;28;20067;-80
2023/10/25 10:11:48;;;;;;;4.85;3.80;;;;;;;8.95;91.92;98776.00;4923877;28;20408;-82
2023/10/25 10:14:36;;;;;;;5.45;3.55;;;;;;;9.05;92.08;98773.91;4910784;28;20080;-82
2023/10/25 10:17:07;;;;;;;5.32;3.60;;;;;;;9.19;92.13;98774.25;4906184;28;20048;-82
2023/10/25 10:19:37;;;;;;;5.20;3.60;;;;;;;9.23;92.16;98769.78;4929687;28;20047;-83
2023/10/25 10:22:09;;;;;;;3.90;2.95;;;;;;;9.11;92.11;98764.97;4919738;28;20503;-82
2023/10/25 10:24:43;;;;;;;3.83;2.42;;;;;;;9.17;91.86;98749.91;4925462;28;20054;-83
2023/10/25 10:27:25;;;;;;;4.15;3.03;;;;;;;9.24;91.86;98742.72;4894246;28;20052;-82
2023/10/25 10:29:53;;;;;;;3.72;2.50;;;;;;;9.23;91.78;98738.38;4909821;28;20067;-82
2023/10/25 10:32:20;;;;;;;3.97;2.58;;;;;;;9.16;91.61;98735.13;4902960;28;20144;-83
2023/10/25 10:34:53;;;;;;;4.18;2.67;;;;;;;9.29;91.88;98734.69;4913915;28;20099;-82
2023/10/25 10:37:22;;;;;;;5.15;2.70;;;;;;;9.35;92.01;98723.97;4907659;28;20052;-82
2023/10/25 10:39:57;;;;;;;3.10;2.20;;;;;;;9.40;91.96;98715.03;4907015;28;20048;-83
2023/10/25 10:42:30;;;;;;;4.70;2.97;;;;;;;9.53;92.03;98714.56;4906033;28;20411;-82
2023/10/25 10:44:59;;;;;;;3.65;2.45;;;;;;;9.51;92.11;98705.91;4912864;28;20052;-80
2023/10/25 10:47:37;;;;;;;3.25;2.40;;;;;;;9.52;91.94;98699.78;4920966;28;20051;-82
2023/10/25 10:50:09;;;;;;;4.20;2.47;;;;;;;9.52;91.95;98698.00;4920789;28;20492;-82
2023/10/25 10:52:35;;;;;;;4.05;2.85;;;;;;;9.55;92.01;98691.78;4943438;28;20055;-82
2023/10/25 10:55:02;;;;;;;3.63;2.80;;;;;;;9.66;92.08;98684.38;4931770;28;20043;-83
2023/10/25 10:57:30;;;;;;;4.97;3.00;;;;;;;9.70;91.87;98677.25;4911039;28;20414;-82
2023/10/25 10:59:58;;;;;;;3.03;2.50;;;;;;;9.82;91.82;98662.78;4919548;29;20051;-80
2023/10/25 11:02:25;;;;;;;4.07;2.80;;;;;;;9.90;91.65;98652.88;4929633;28;20051;-82
2023/10/25 11:04:52;;;;;;;3.00;2.70;;;;;;;9.81;91.56;98650.63;4924024;28;20043;-83
2023/10/25 11:07:19;;;;;;;3.60;2.47;;;;;;;9.70;91.64;98641.44;4929068;28;20115;-81
2023/10/25 11:09:46;;;;;;;3.17;2.50;;;;;;;9.76;91.84;98635.06;4923766;28;20040;-82
2023/10/25 11:12:16;;;;;;;2.55;2.13;;;;;;;9.80;91.92;98626.19;4905853;28;20635;-83
2023/10/25 11:14:45;;;;;;;3.28;2.47;;;;;;;9.68;91.84;98622.31;4923964;28;20047;-82
2023/10/25 11:17:12;;;;;;;3.95;2.78;;;;;;;9.69;92.09;98629.25;4909513;28;20450;-80
2023/10/25 11:19:40;;;;;;;3.13;2.47;;;;;;;9.64;91.89;98623.34;4911420;28;20056;-80
2023/10/25 11:22:07;;;;;;;3.17;2.42;;;;;;;9.68;91.61;98609.19;4915840;28;20056;-82
2023/10/25 11:24:35;;;;;;;3.72;2.50;;;;;;;9.66;91.41;98602.31;4902648;28;20135;-83
2023/10/25 11:27:02;;;;;;;4.40;2.67;;;;;;;9.74;91.96;98603.72;4901359;28;20048;-83
2023/10/25 11:29:37;;;;;;;2.92;2.30;;;;;;;9.76;91.87;98593.16;4922380;28;20056;-82
2023/10/25 11:32:06;;;;;;;4.00;2.70;;;;;;;9.86;92.05;98597.13;4905974;28;20056;-82
2023/10/25 11:34:34;;;;;;;4.45;2.55;;;;;;;9.84;91.66;98588.47;4926106;28;20107;-82
2023/10/25 11:37:01;;;;;;;3.55;2.63;;;;;;;9.87;92.04;98590.13;4908216;28;20076;-82
2023/10/25 11:39:32;;;;;;;5.25;3.38;;;;;;;9.78;92.11;98593.13;4912627;28;20056;-80
2023/10/25 11:41:59;;;;;;;5.78;3.45;;;;;;;9.74;91.92;98580.13;4909385;28;20039;-82
2023/10/25 11:44:27;;;;;;;4.28;3.20;;;;;;;9.84;92.03;98587.63;4919257;28;20060;-82
2023/10/25 11:46:58;;;;;;;4.90;3.25;;;;;;;9.81;91.72;98583.38;4903410;28;20059;-81